Shawsville, Virginia
Current Conditions -  °F | °C
As of 3:15 PM on Thursday 29 Jan 2015 (Local Time) from KBCB Reporting Station
Scattered Clouds Scattered Clouds  
Wind Chill: 35°   Ceiling: Unl
Heat Index: 40°   Visibility: 10mi
Dew Point: 26°   Wind: 8mph
Humidity: 58%   Direction: 200°SSW
Pressure: 30.02"   Gusts: NA
Location:  37.17°N, 80.25°W
Report Text: KBCB 292015Z AUTO 20007KT 170V230 10SM SCT048 05/M03 A3002 RMK AO2 T00451032
Loading
Personal Weather Stations






























Interactive Weather Map New forecast layout! Learn more

10-Day Weather Forecast

Advertisements
Track Severe Weather on mobile